createdAt,value
2023-03-20T00:00:17.274Z,0
2023-03-20T00:01:17.285Z,0
2023-03-20T00:02:17.514Z,0
2023-03-20T00:03:17.537Z,0
2023-03-20T00:04:18.459Z,0
2023-03-20T00:05:17.335Z,0
2023-03-20T00:06:17.506Z,0
2023-03-20T00:07:17.522Z,0
2023-03-20T00:08:17.678Z,0
2023-03-20T00:09:18.332Z,0
2023-03-20T00:10:17.208Z,0
2023-03-20T00:11:17.637Z,0
2023-03-20T00:12:17.444Z,0
2023-03-20T00:13:17.144Z,0
2023-03-20T00:14:17.084Z,0
2023-03-20T00:15:16.828Z,0
2023-03-20T00:16:17.180Z,0
2023-03-20T00:17:17.309Z,0
2023-03-20T00:18:17.285Z,0
2023-03-20T00:19:16.762Z,0
2023-03-20T00:20:17.275Z,0
2023-03-20T00:21:17.540Z,0
2023-03-20T00:22:16.771Z,0
2023-03-20T00:23:17.238Z,0
2023-03-20T00:24:17.460Z,0
2023-03-20T00:25:17.476Z,0
2023-03-20T00:26:17.371Z,0
2023-03-20T00:27:17.165Z,0
2023-03-20T00:28:16.980Z,0
2023-03-20T00:29:17.467Z,0
2023-03-20T00:30:16.606Z,0
2023-03-20T00:31:17.700Z,0
2023-03-20T00:32:17.148Z,0
2023-03-20T00:33:17.272Z,0
2023-03-20T00:34:16.554Z,0
2023-03-20T00:35:16.824Z,0
2023-03-20T00:36:17.316Z,0
2023-03-20T00:37:16.946Z,0
2023-03-20T00:38:17.251Z,0
2023-03-20T00:39:17.049Z,0
2023-03-20T00:40:17.008Z,0
2023-03-20T00:41:17.222Z,0
2023-03-20T00:42:17.022Z,0
2023-03-20T00:43:16.952Z,0
2023-03-20T00:44:17.244Z,0
2023-03-20T00:45:17.228Z,0
2023-03-20T00:46:17.108Z,0
2023-03-20T00:47:17.223Z,0
2023-03-20T00:48:16.614Z,0
2023-03-20T00:49:17.110Z,0
2023-03-20T00:50:16.868Z,0
2023-03-20T00:51:16.548Z,0
2023-03-20T00:52:17.060Z,0
2023-03-20T00:53:16.527Z,0
2023-03-20T00:54:16.528Z,0
2023-03-20T00:55:16.790Z,0
2023-03-20T00:56:16.745Z,0
2023-03-20T00:57:16.750Z,0
2023-03-20T00:58:17.016Z,0
2023-03-20T00:59:17.155Z,0
2023-03-20T01:00:16.771Z,0
2023-03-20T01:01:17.218Z,0
2023-03-20T01:02:16.938Z,0
2023-03-20T01:03:16.423Z,0
2023-03-20T01:04:16.430Z,0
2023-03-20T01:05:16.640Z,0
2023-03-20T01:06:16.110Z,0
2023-03-20T01:07:16.612Z,0
2023-03-20T01:08:16.316Z,0
2023-03-20T01:09:16.844Z,0
2023-03-20T01:10:16.072Z,0
2023-03-20T01:11:16.302Z,0
2023-03-20T01:12:16.784Z,0
2023-03-20T01:13:16.517Z,0
2023-03-20T01:14:16.545Z,0
2023-03-20T01:15:16.763Z,0
2023-03-20T01:16:17.161Z,0
2023-03-20T01:17:19.123Z,0
2023-03-20T01:18:16.443Z,0
2023-03-20T01:19:16.174Z,0
2023-03-20T01:20:16.408Z,0
2023-03-20T01:21:16.144Z,0
2023-03-20T01:22:16.155Z,0
2023-03-20T01:23:16.129Z,0
2023-03-20T01:24:16.376Z,0
2023-03-20T01:25:15.875Z,0
2023-03-20T01:26:16.098Z,0
2023-03-20T01:27:16.335Z,0
2023-03-20T01:28:16.328Z,0
2023-03-20T01:29:16.024Z,0
2023-03-20T01:30:16.355Z,0
2023-03-20T01:31:16.547Z,0
2023-03-20T01:32:16.794Z,0
2023-03-20T01:33:16.617Z,0
2023-03-20T01:34:15.723Z,0
2023-03-20T01:35:16.223Z,0
2023-03-20T01:36:16.562Z,0
2023-03-20T01:37:16.483Z,0
2023-03-20T01:38:16.441Z,0
2023-03-20T01:39:15.643Z,0
2023-03-20T01:40:16.393Z,0
2023-03-20T01:41:16.142Z,0
2023-03-20T01:42:16.373Z,0
2023-03-20T01:43:16.336Z,0
2023-03-20T01:44:15.836Z,0
2023-03-20T01:45:16.324Z,0
2023-03-20T01:46:16.682Z,0
2023-03-20T01:47:16.048Z,0
2023-03-20T01:48:16.129Z,0
2023-03-20T01:49:16.327Z,0
2023-03-20T01:50:16.039Z,0
2023-03-20T01:51:15.984Z,0
2023-03-20T01:52:15.729Z,0
2023-03-20T01:53:15.709Z,0
2023-03-20T01:54:15.963Z,0
2023-03-20T01:55:15.979Z,0
2023-03-20T01:56:15.663Z,0
2023-03-20T01:57:16.171Z,0
2023-03-20T01:58:15.894Z,0
2023-03-20T01:59:15.866Z,0
2023-03-20T02:00:15.895Z,0
2023-03-20T02:01:16.439Z,0
2023-03-20T02:02:15.836Z,0
2023-03-20T02:03:15.818Z,0
2023-03-20T02:04:15.875Z,0
2023-03-20T02:05:16.620Z,0
2023-03-20T02:06:16.058Z,0
2023-03-20T02:07:15.514Z,0
2023-03-20T02:08:15.753Z,0
2023-03-20T02:09:15.984Z,0
2023-03-20T02:10:15.973Z,0
2023-03-20T02:11:15.956Z,0
2023-03-20T02:12:16.085Z,0
2023-03-20T02:13:15.940Z,0
2023-03-20T02:14:15.934Z,0
2023-03-20T02:15:15.655Z,0
2023-03-20T02:16:15.642Z,0
2023-03-20T02:17:16.029Z,0
2023-03-20T02:18:15.088Z,0
2023-03-20T02:19:15.443Z,0
2023-03-20T02:20:15.670Z,0
2023-03-20T02:21:15.868Z,0
2023-03-20T02:22:15.559Z,0
2023-03-20T02:23:15.608Z,0
2023-03-20T02:24:15.512Z,0
2023-03-20T02:25:15.621Z,0
2023-03-20T02:26:15.390Z,0
2023-03-20T02:27:15.233Z,0
2023-03-20T02:28:14.715Z,0
2023-03-20T02:29:15.722Z,0
2023-03-20T02:30:46.829Z,0
2023-03-20T02:31:15.898Z,0
2023-03-20T02:32:15.669Z,0
2023-03-20T02:33:15.684Z,0
2023-03-20T02:34:15.373Z,0
2023-03-20T02:35:15.361Z,0
2023-03-20T02:36:15.706Z,0
2023-03-20T02:37:15.381Z,0
2023-03-20T02:38:15.591Z,0
2023-03-20T02:39:14.777Z,0
2023-03-20T02:40:15.541Z,0
2023-03-20T02:41:15.861Z,0
2023-03-20T02:42:14.737Z,0
2023-03-20T02:43:15.514Z,0
2023-03-20T02:44:15.020Z,0
2023-03-20T02:45:15.495Z,0
2023-03-20T02:46:15.667Z,0
2023-03-20T02:47:15.199Z,0
2023-03-20T02:48:15.173Z,0
2023-03-20T02:49:15.185Z,0
2023-03-20T02:50:14.928Z,0
2023-03-20T02:51:14.912Z,0
2023-03-20T02:52:15.465Z,0
2023-03-20T02:53:15.158Z,0
2023-03-20T02:54:15.100Z,0
2023-03-20T02:55:15.072Z,0
2023-03-20T02:56:14.875Z,0
2023-03-20T02:57:15.054Z,0
2023-03-20T02:58:15.035Z,0
2023-03-20T02:59:15.265Z,0
2023-03-20T03:00:15.002Z,0
2023-03-20T03:01:14.945Z,0
2023-03-20T03:02:14.996Z,0
2023-03-20T03:03:15.017Z,0
2023-03-20T03:04:14.743Z,0
2023-03-20T03:05:14.949Z,0
2023-03-20T03:06:14.894Z,0
2023-03-20T03:07:14.661Z,0
2023-03-20T03:08:15.215Z,0
2023-03-20T03:09:17.652Z,0
2023-03-20T03:10:15.215Z,0
2023-03-20T03:11:14.664Z,0
2023-03-20T03:12:15.071Z,0
2023-03-20T03:13:14.814Z,0
2023-03-20T03:14:15.064Z,0
2023-03-20T03:15:14.573Z,0
2023-03-20T03:16:15.111Z,0
2023-03-20T03:17:14.360Z,0
2023-03-20T03:18:15.007Z,0
2023-03-20T03:19:14.749Z,0
2023-03-20T03:20:14.724Z,0
2023-03-20T03:21:14.438Z,0
2023-03-20T03:22:14.944Z,0
2023-03-20T03:23:14.702Z,0
2023-03-20T03:24:14.787Z,0
2023-03-20T03:25:14.732Z,0
2023-03-20T03:26:14.924Z,0
2023-03-20T03:27:14.638Z,0
2023-03-20T03:28:14.379Z,0
2023-03-20T03:29:14.620Z,0
2023-03-20T03:30:14.843Z,0
2023-03-20T03:31:14.504Z,0
2023-03-20T03:32:14.567Z,0
2023-03-20T03:33:15.344Z,0
2023-03-20T03:34:14.552Z,0
2023-03-20T03:35:14.262Z,0
2023-03-20T03:36:14.534Z,0
2023-03-20T03:37:14.222Z,0
2023-03-20T03:38:14.533Z,0
2023-03-20T03:39:14.780Z,0
2023-03-20T03:40:14.597Z,0
2023-03-20T03:41:14.740Z,0
2023-03-20T03:42:14.407Z,0
2023-03-20T03:43:14.669Z,0
2023-03-20T03:44:14.646Z,0
2023-03-20T03:45:14.381Z,0
2023-03-20T03:46:14.572Z,0
2023-03-20T03:47:14.344Z,0
2023-03-20T03:48:14.641Z,0
2023-03-20T03:49:14.050Z,0
2023-03-20T03:50:14.560Z,0
2023-03-20T03:51:14.295Z,0
2023-03-20T03:52:14.006Z,0
2023-03-20T03:53:14.539Z,0
2023-03-20T03:54:14.234Z,0
2023-03-20T03:55:14.291Z,0
2023-03-20T03:56:14.704Z,0
2023-03-20T03:57:14.507Z,0
2023-03-20T03:58:14.198Z,0
2023-03-20T03:59:13.944Z,0
2023-03-20T04:00:13.673Z,0
2023-03-20T04:01:14.391Z,0
2023-03-20T04:02:14.389Z,0
2023-03-20T04:03:14.157Z,0
2023-03-20T04:04:14.333Z,0
2023-03-20T04:05:14.251Z,0
2023-03-20T04:06:14.078Z,0
2023-03-20T04:07:14.303Z,0
2023-03-20T04:08:14.033Z,0
2023-03-20T04:09:14.285Z,0
2023-03-20T04:10:13.998Z,0
2023-03-20T04:11:13.741Z,0
2023-03-20T04:12:14.339Z,0
2023-03-20T04:13:13.756Z,0
2023-03-20T04:14:14.220Z,0
2023-03-20T04:15:14.191Z,0
2023-03-20T04:16:13.939Z,0
2023-03-20T04:17:14.166Z,0
2023-03-20T04:18:14.152Z,0
2023-03-20T04:19:13.930Z,0
2023-03-20T04:20:13.873Z,0
2023-03-20T04:21:13.838Z,0
2023-03-20T04:22:13.818Z,0
2023-03-20T04:23:13.815Z,0
2023-03-20T04:24:13.816Z,0
2023-03-20T04:25:13.772Z,0
2023-03-20T04:26:13.787Z,0
2023-03-20T04:27:13.768Z,0
2023-03-20T04:28:14.252Z,0
2023-03-20T04:29:14.076Z,0
2023-03-20T04:46:10.211Z,0
2023-03-20T04:47:09.168Z,0
2023-03-20T04:48:09.130Z,0
2023-03-20T04:49:09.295Z,0
2023-03-20T04:50:09.039Z,0
2023-03-20T04:51:08.536Z,0
2023-03-20T04:52:09.245Z,0
2023-03-20T04:53:09.230Z,0
2023-03-20T04:54:09.212Z,0
2023-03-20T04:55:09.535Z,0
2023-03-20T04:56:11.377Z,0
2023-03-20T04:57:08.925Z,0
2023-03-20T04:58:09.402Z,0
2023-03-20T04:59:08.932Z,0
2023-03-20T05:00:09.203Z,0
2023-03-20T05:01:09.420Z,0
2023-03-20T05:02:09.560Z,0
2023-03-20T05:03:09.078Z,0
2023-03-20T05:04:09.404Z,0
2023-03-20T05:05:09.320Z,0
2023-03-20T05:06:08.751Z,0
2023-03-20T05:07:08.756Z,0
2023-03-20T05:08:09.233Z,0
2023-03-20T05:09:08.975Z,0
2023-03-20T05:10:08.990Z,0
2023-03-20T05:11:08.960Z,0
2023-03-20T05:12:08.961Z,0
2023-03-20T05:13:08.167Z,0
2023-03-20T05:14:08.960Z,0
2023-03-20T05:15:09.189Z,0
2023-03-20T05:16:09.113Z,0
2023-03-20T05:17:09.629Z,0
2023-03-20T05:18:09.203Z,0
2023-03-20T05:19:09.037Z,0
2023-03-20T05:20:08.813Z,0
2023-03-20T05:21:08.800Z,0
2023-03-20T05:22:09.088Z,0
2023-03-20T05:23:11.195Z,5
2023-03-20T05:24:08.917Z,5
2023-03-20T05:25:08.564Z,5
2023-03-20T05:26:08.541Z,5
2023-03-20T05:27:08.775Z,5
2023-03-20T05:28:08.785Z,5
2023-03-20T05:29:08.733Z,5
2023-03-20T05:30:08.492Z,5
2023-03-20T05:31:09.079Z,5
2023-03-20T05:32:08.490Z,5
2023-03-20T05:33:08.684Z,5
2023-03-20T05:34:09.088Z,5
2023-03-20T05:35:08.934Z,5
2023-03-20T05:36:08.935Z,5
2023-03-20T05:37:08.546Z,5
2023-03-20T05:38:08.894Z,5
2023-03-20T05:39:08.354Z,5
2023-03-20T05:40:08.579Z,5
2023-03-20T05:41:08.581Z,10
2023-03-20T05:42:08.482Z,10
2023-03-20T05:43:08.286Z,10
2023-03-20T05:44:08.057Z,15
2023-03-20T05:45:08.823Z,15
2023-03-20T05:46:08.645Z,15
2023-03-20T05:47:08.531Z,15
2023-03-20T05:48:08.722Z,15
2023-03-20T05:49:07.964Z,15
2023-03-20T05:50:08.850Z,15
2023-03-20T05:51:08.448Z,15
2023-03-20T05:52:08.230Z,15
2023-03-20T05:53:08.420Z,15
2023-03-20T05:54:08.373Z,20
2023-03-20T05:55:08.114Z,20
2023-03-20T05:56:07.843Z,20
2023-03-20T05:57:09.472Z,20
2023-03-20T05:58:08.093Z,20
2023-03-20T05:59:08.055Z,20
2023-03-20T06:00:08.037Z,20
2023-03-20T06:01:08.577Z,25
2023-03-20T06:02:08.307Z,25
2023-03-20T06:03:08.473Z,25
2023-03-20T06:04:08.136Z,30
2023-03-20T06:05:07.731Z,30
2023-03-20T06:06:08.601Z,35
2023-03-20T06:07:08.007Z,35
2023-03-20T06:08:08.249Z,40
2023-03-20T06:09:07.659Z,40
2023-03-20T06:10:08.453Z,40
2023-03-20T06:11:08.129Z,40
2023-03-20T06:12:08.176Z,40
2023-03-20T06:13:08.503Z,45
2023-03-20T06:14:07.585Z,45
2023-03-20T06:15:07.874Z,45
2023-03-20T06:16:08.217Z,45
2023-03-20T06:17:08.064Z,45
2023-03-20T06:18:08.054Z,45
2023-03-20T06:19:08.286Z,45
2023-03-20T06:20:07.780Z,50
2023-03-20T06:21:08.083Z,50
2023-03-20T06:22:08.395Z,50
2023-03-20T06:23:08.237Z,50
2023-03-20T06:24:07.967Z,50
2023-03-20T06:25:07.994Z,50
2023-03-20T06:26:07.859Z,50
2023-03-20T06:27:08.201Z,50
2023-03-20T06:28:07.997Z,50
2023-03-20T06:29:08.128Z,50
2023-03-20T06:30:07.872Z,50
2023-03-20T06:31:08.092Z,45
2023-03-20T06:32:08.121Z,45
2023-03-20T06:33:07.875Z,45
2023-03-20T06:34:08.181Z,45
2023-03-20T06:35:07.551Z,50
2023-03-20T06:36:08.088Z,50
2023-03-20T06:37:07.293Z,50
2023-03-20T06:38:08.141Z,50
2023-03-20T06:39:07.756Z,55
2023-03-20T06:40:08.057Z,55
2023-03-20T06:41:08.103Z,60
2023-03-20T06:42:07.535Z,65
2023-03-20T06:43:07.682Z,60
2023-03-20T06:44:07.924Z,60
2023-03-20T06:45:08.020Z,65
2023-03-20T06:46:07.704Z,65
2023-03-20T06:47:07.840Z,60
2023-03-20T06:48:07.730Z,60
2023-03-20T06:49:07.351Z,60
2023-03-20T06:50:07.628Z,70
2023-03-20T06:51:07.622Z,75
2023-03-20T06:52:07.337Z,80
2023-03-20T06:53:07.557Z,85
2023-03-20T06:54:08.049Z,85
2023-03-20T06:55:07.537Z,80
2023-03-20T06:56:07.550Z,80
2023-03-20T06:57:07.236Z,80
2023-03-20T06:58:07.504Z,80
2023-03-20T06:59:07.605Z,80
2023-03-20T07:00:07.772Z,80
2023-03-20T07:01:07.444Z,80
2023-03-20T07:02:07.815Z,85
2023-03-20T07:03:09.726Z,85
2023-03-20T07:04:07.681Z,90
2023-03-20T07:05:07.770Z,90
2023-03-20T07:06:07.661Z,90
2023-03-20T07:07:07.385Z,95
2023-03-20T07:08:07.357Z,95
2023-03-20T07:09:07.345Z,95
2023-03-20T07:10:07.806Z,95
2023-03-20T07:11:07.105Z,100
2023-03-20T07:12:07.369Z,100
2023-03-20T07:13:07.310Z,100
2023-03-20T07:14:07.548Z,105
2023-03-20T07:15:07.032Z,110
2023-03-20T07:16:14.141Z,110
2023-03-20T07:17:07.487Z,110
2023-03-20T07:18:06.985Z,110
2023-03-20T07:19:07.202Z,115
2023-03-20T07:20:07.183Z,125
2023-03-20T07:21:07.484Z,125
2023-03-20T07:22:06.653Z,125
2023-03-20T07:23:06.907Z,130
2023-03-20T07:24:07.406Z,140
2023-03-20T07:25:06.863Z,150
2023-03-20T07:26:07.580Z,160
2023-03-20T07:27:07.136Z,165
2023-03-20T07:28:07.075Z,170
2023-03-20T07:29:07.085Z,170
2023-03-20T07:30:07.319Z,170
2023-03-20T07:31:07.663Z,170
2023-03-20T07:32:07.272Z,170
2023-03-20T07:33:07.116Z,170
2023-03-20T07:34:06.787Z,165
2023-03-20T07:35:06.780Z,170
2023-03-20T07:36:07.729Z,175
2023-03-20T07:37:06.744Z,180
2023-03-20T07:38:07.727Z,185
2023-03-20T07:39:06.966Z,185
2023-03-20T07:40:07.203Z,185
2023-03-20T07:41:06.968Z,180
2023-03-20T07:42:07.304Z,180
2023-03-20T07:43:06.657Z,175
2023-03-20T07:44:06.417Z,175
2023-03-20T07:45:06.884Z,175
2023-03-20T07:46:06.761Z,170
2023-03-20T07:47:06.593Z,165
2023-03-20T07:48:06.871Z,165
2023-03-20T07:49:07.088Z,175
2023-03-20T07:50:10.106Z,185
2023-03-20T07:51:06.880Z,190
2023-03-20T07:52:06.798Z,200
2023-03-20T07:53:06.519Z,200
2023-03-20T07:54:06.794Z,200
2023-03-20T07:55:07.012Z,190
2023-03-20T07:56:06.261Z,190
2023-03-20T07:57:07.008Z,195
2023-03-20T07:58:07.198Z,200
2023-03-20T07:59:06.715Z,205
2023-03-20T08:00:06.171Z,205
2023-03-20T08:01:06.456Z,205
2023-03-20T08:02:07.196Z,210
2023-03-20T08:03:07.475Z,215
2023-03-20T08:04:07.476Z,220
2023-03-20T08:05:07.154Z,230
2023-03-20T08:06:07.865Z,230
2023-03-20T08:07:06.883Z,235
2023-03-20T08:08:06.931Z,235
2023-03-20T08:09:06.624Z,235
2023-03-20T08:10:06.339Z,230
2023-03-20T08:11:06.312Z,235
2023-03-20T08:12:06.609Z,235
2023-03-20T08:13:06.273Z,235
2023-03-20T08:14:06.931Z,240
2023-03-20T08:15:06.511Z,240
2023-03-20T08:16:06.322Z,245
2023-03-20T08:17:27.076Z,245
2023-03-20T08:18:06.490Z,245
2023-03-20T08:19:06.477Z,250
2023-03-20T08:20:06.706Z,250
2023-03-20T08:21:06.725Z,255
2023-03-20T08:22:06.431Z,260
2023-03-20T08:23:06.452Z,255
2023-03-20T08:24:06.452Z,250
2023-03-20T08:25:06.407Z,250
2023-03-20T08:26:06.400Z,230
2023-03-20T08:27:06.766Z,235
2023-03-20T08:28:06.683Z,255
2023-03-20T08:29:06.613Z,265
2023-03-20T08:30:06.792Z,270
2023-03-20T08:31:06.624Z,265
2023-03-20T08:32:06.577Z,270
2023-03-20T08:33:06.725Z,265
2023-03-20T08:34:06.078Z,260
2023-03-20T08:35:06.549Z,260
2023-03-20T08:36:06.546Z,265
2023-03-20T08:37:06.550Z,255
2023-03-20T08:38:06.037Z,260
2023-03-20T08:39:06.532Z,260
2023-03-20T08:40:06.077Z,255
2023-03-20T08:41:06.041Z,245
2023-03-20T08:42:08.484Z,250
2023-03-20T08:43:06.644Z,260
2023-03-20T08:44:06.240Z,255
2023-03-20T08:45:06.004Z,245
2023-03-20T08:46:07.013Z,210
2023-03-20T08:47:06.177Z,175
2023-03-20T08:48:06.524Z,160
2023-03-20T08:49:06.141Z,155
2023-03-20T08:50:06.602Z,160
2023-03-20T08:51:05.899Z,155
2023-03-20T08:52:06.164Z,145
2023-03-20T08:53:06.147Z,150
2023-03-20T08:54:06.369Z,145
2023-03-20T08:55:06.150Z,135
2023-03-20T08:56:06.517Z,170
2023-03-20T08:57:05.801Z,175
2023-03-20T08:58:05.835Z,155
2023-03-20T08:59:06.381Z,145
2023-03-20T09:00:06.279Z,160
2023-03-20T09:01:06.363Z,175
2023-03-20T09:02:07.939Z,195
2023-03-20T09:03:06.360Z,200
2023-03-20T09:04:06.243Z,165
2023-03-20T09:05:06.049Z,145
2023-03-20T09:06:05.458Z,150
2023-03-20T09:07:05.454Z,165
2023-03-20T09:08:05.938Z,180
2023-03-20T09:09:05.720Z,195
2023-03-20T09:10:06.198Z,200
2023-03-20T09:11:05.923Z,190
2023-03-20T09:12:06.482Z,185
2023-03-20T09:13:28.138Z,215
2023-03-20T09:14:05.920Z,235
2023-03-20T09:15:06.199Z,245
2023-03-20T09:16:05.962Z,220
2023-03-20T09:17:05.897Z,205
2023-03-20T09:18:08.847Z,195
2023-03-20T09:19:05.944Z,180
2023-03-20T09:20:05.882Z,185
2023-03-20T09:21:05.724Z,200
2023-03-20T09:22:06.033Z,230
2023-03-20T09:23:05.799Z,225
2023-03-20T09:24:05.765Z,215
2023-03-20T09:25:06.016Z,185
2023-03-20T09:26:05.514Z,185
2023-03-20T09:27:08.420Z,240
2023-03-20T09:28:05.994Z,275
2023-03-20T09:29:05.790Z,300
2023-03-20T09:30:05.974Z,325
2023-03-20T09:31:06.089Z,315
2023-03-20T09:32:05.947Z,300
2023-03-20T09:33:05.833Z,275
2023-03-20T09:34:06.031Z,295
2023-03-20T09:35:05.155Z,280
2023-03-20T09:36:05.740Z,255
2023-03-20T09:37:05.652Z,250
2023-03-20T09:38:05.103Z,270
2023-03-20T09:39:05.131Z,275
2023-03-20T09:40:05.883Z,250
2023-03-20T09:41:05.772Z,230
2023-03-20T09:42:07.470Z,275
2023-03-20T09:43:05.829Z,300
2023-03-20T09:44:05.572Z,275
2023-03-20T09:45:05.868Z,275
2023-03-20T09:46:06.103Z,295
2023-03-20T09:47:29.222Z,295
2023-03-20T09:48:05.511Z,295
2023-03-20T09:49:05.761Z,275
2023-03-20T09:50:06.040Z,295
2023-03-20T09:51:05.737Z,310
2023-03-20T09:52:05.494Z,305
2023-03-20T09:53:05.621Z,300
2023-03-20T09:54:08.327Z,315
2023-03-20T09:55:05.061Z,325
2023-03-20T09:56:05.400Z,340
2023-03-20T09:57:05.401Z,345
2023-03-20T09:58:05.175Z,340
2023-03-20T09:59:05.442Z,325
2023-03-20T10:00:05.706Z,320
2023-03-20T10:01:05.130Z,300
2023-03-20T10:02:05.667Z,300
2023-03-20T10:03:05.206Z,305
2023-03-20T10:04:05.419Z,305
2023-03-20T10:05:05.778Z,300
2023-03-20T10:06:05.711Z,300
2023-03-20T10:07:05.564Z,305
2023-03-20T10:08:05.057Z,310
2023-03-20T10:09:05.181Z,300
2023-03-20T10:10:05.577Z,280
2023-03-20T10:11:05.332Z,245
2023-03-20T10:12:04.838Z,255
2023-03-20T10:13:05.025Z,280
2023-03-20T10:14:05.522Z,285
2023-03-20T10:15:05.245Z,280
2023-03-20T10:16:05.702Z,300
2023-03-20T10:17:04.699Z,320
2023-03-20T10:18:05.213Z,325
2023-03-20T10:19:05.188Z,300
2023-03-20T10:20:05.535Z,300
2023-03-20T10:21:05.183Z,320
2023-03-20T10:22:05.703Z,350
2023-03-20T10:23:05.184Z,350
2023-03-20T10:24:05.413Z,390
2023-03-20T10:25:04.886Z,405
2023-03-20T10:26:04.646Z,410
2023-03-20T10:27:04.621Z,400
2023-03-20T10:28:05.145Z,375
2023-03-20T10:29:05.102Z,360
2023-03-20T10:30:05.360Z,315
2023-03-20T10:31:04.993Z,250
2023-03-20T10:32:05.258Z,185
2023-03-20T10:33:04.971Z,150
2023-03-20T10:34:04.842Z,160
2023-03-20T10:35:05.321Z,205
2023-03-20T10:36:05.141Z,235
2023-03-20T10:37:05.072Z,260
2023-03-20T10:38:05.429Z,245
2023-03-20T10:39:05.299Z,190
2023-03-20T10:40:05.327Z,170
2023-03-20T10:41:05.189Z,190
2023-03-20T10:42:05.250Z,220
2023-03-20T10:43:05.038Z,185
2023-03-20T10:44:05.312Z,175
2023-03-20T10:45:05.234Z,155
2023-03-20T10:46:05.009Z,125
2023-03-20T10:47:05.537Z,135
2023-03-20T10:48:04.744Z,175
2023-03-20T10:49:04.672Z,170
2023-03-20T10:50:04.645Z,135
2023-03-20T10:51:04.719Z,115
2023-03-20T10:52:05.394Z,115
2023-03-20T10:53:05.544Z,140
2023-03-20T10:54:05.236Z,180
2023-03-20T10:55:04.628Z,190
2023-03-20T10:56:04.611Z,195
2023-03-20T10:57:04.909Z,215
2023-03-20T10:58:04.868Z,225
2023-03-20T10:59:04.803Z,220
2023-03-20T11:00:04.819Z,185
2023-03-20T11:01:04.836Z,140
2023-03-20T11:02:04.512Z,150
2023-03-20T11:03:04.775Z,155
2023-03-20T11:04:05.013Z,125
2023-03-20T11:05:04.550Z,140
2023-03-20T11:06:18.465Z,190
2023-03-20T11:07:05.037Z,190
2023-03-20T11:08:04.479Z,180
2023-03-20T11:09:04.974Z,160
2023-03-20T11:10:05.096Z,115
2023-03-20T11:11:07.204Z,115
2023-03-20T11:12:04.542Z,130
2023-03-20T11:13:04.905Z,200
2023-03-20T11:14:04.663Z,265
2023-03-20T11:15:04.940Z,280
2023-03-20T11:16:04.908Z,250
2023-03-20T11:17:04.731Z,235
2023-03-20T11:18:05.192Z,230
2023-03-20T11:19:07.593Z,235
2023-03-20T11:20:04.886Z,245
2023-03-20T11:21:04.820Z,250
2023-03-20T11:22:04.600Z,240
2023-03-20T11:23:04.341Z,240
2023-03-20T11:24:04.578Z,245
2023-03-20T11:25:04.698Z,255
2023-03-20T11:26:05.750Z,260
2023-03-20T11:27:05.150Z,260
2023-03-20T11:28:04.984Z,265
2023-03-20T11:29:05.636Z,265
2023-03-20T11:30:05.247Z,265
2023-03-20T11:31:13.930Z,255
2023-03-20T11:32:05.775Z,255
2023-03-20T11:33:05.577Z,235
2023-03-20T11:34:04.954Z,240
2023-03-20T11:35:04.989Z,245
2023-03-20T11:36:05.508Z,260
2023-03-20T11:37:18.219Z,300
2023-03-20T11:38:05.404Z,310
2023-03-20T11:39:05.399Z,305
2023-03-20T11:40:05.134Z,305
2023-03-20T11:41:05.103Z,295
2023-03-20T11:42:05.466Z,330
2023-03-20T11:43:05.139Z,345
2023-03-20T11:44:04.823Z,325
2023-03-20T11:45:04.885Z,345
2023-03-20T11:46:05.609Z,360
2023-03-20T11:47:05.103Z,370
2023-03-20T11:48:06.980Z,390
2023-03-20T11:49:05.039Z,390
2023-03-20T11:50:05.282Z,380
2023-03-20T11:51:05.014Z,390
2023-03-20T11:52:04.983Z,355
2023-03-20T11:53:05.248Z,325
2023-03-20T11:54:05.077Z,245
2023-03-20T11:55:04.744Z,265
2023-03-20T11:56:04.948Z,260
2023-03-20T11:57:04.979Z,225
2023-03-20T11:58:05.327Z,250
2023-03-20T11:59:04.943Z,295
2023-03-20T12:00:04.646Z,270
2023-03-20T12:01:04.953Z,230
2023-03-20T12:02:05.147Z,250
2023-03-20T12:03:05.091Z,240
2023-03-20T12:04:05.365Z,260
2023-03-20T12:05:04.864Z,265
2023-03-20T12:06:04.619Z,255
2023-03-20T12:07:04.583Z,200
2023-03-20T12:08:04.781Z,170
2023-03-20T12:09:04.924Z,190
2023-03-20T12:10:05.072Z,220
2023-03-20T12:11:04.845Z,205
2023-03-20T12:12:07.071Z,190
2023-03-20T12:13:04.806Z,185
2023-03-20T12:14:05.171Z,120
2023-03-20T12:15:04.777Z,125
2023-03-20T12:16:05.374Z,175
2023-03-20T12:17:04.511Z,230
2023-03-20T12:18:04.555Z,245
2023-03-20T12:19:04.215Z,270
2023-03-20T12:20:04.757Z,260
2023-03-20T12:21:05.008Z,220
2023-03-20T12:22:05.011Z,190
2023-03-20T12:23:04.726Z,155
2023-03-20T12:24:04.688Z,125
2023-03-20T12:25:04.961Z,130
2023-03-20T12:26:04.486Z,120
2023-03-20T12:27:04.921Z,115
2023-03-20T12:28:04.692Z,100
2023-03-20T12:29:04.916Z,90
2023-03-20T12:30:05.051Z,105
2023-03-20T12:31:04.755Z,125
2023-03-20T12:32:04.172Z,130
2023-03-20T12:33:05.137Z,130
2023-03-20T12:34:04.845Z,165
2023-03-20T12:35:04.690Z,170
2023-03-20T12:36:04.874Z,135
2023-03-20T12:37:04.653Z,125
2023-03-20T12:38:04.808Z,140
2023-03-20T12:39:04.358Z,140
2023-03-20T12:40:04.332Z,160
2023-03-20T12:41:04.506Z,170
2023-03-20T12:42:04.542Z,170
2023-03-20T12:43:04.499Z,185
2023-03-20T12:44:04.520Z,225
2023-03-20T12:45:04.463Z,290
2023-03-20T12:46:04.855Z,315
2023-03-20T12:47:04.750Z,315
2023-03-20T12:48:04.724Z,350
2023-03-20T12:49:04.207Z,365
2023-03-20T12:50:03.905Z,370
2023-03-20T12:51:04.166Z,350
2023-03-20T12:52:04.669Z,335
2023-03-20T12:53:03.631Z,310
2023-03-20T12:54:04.632Z,300
2023-03-20T12:55:03.901Z,310
2023-03-20T12:56:04.076Z,300
2023-03-20T12:57:04.384Z,270
2023-03-20T12:58:04.319Z,260
2023-03-20T12:59:04.669Z,245
2023-03-20T13:00:04.303Z,250
2023-03-20T13:01:04.284Z,255
2023-03-20T13:02:05.054Z,260
2023-03-20T13:03:04.616Z,220
2023-03-20T13:04:04.573Z,180
2023-03-20T13:05:04.281Z,175
2023-03-20T13:06:03.746Z,205
2023-03-20T13:07:04.269Z,225
2023-03-20T13:08:04.469Z,235
2023-03-20T13:09:03.716Z,195
2023-03-20T13:10:04.037Z,215
2023-03-20T13:11:04.467Z,255
2023-03-20T13:12:04.211Z,285
2023-03-20T13:13:04.006Z,310
2023-03-20T13:14:04.409Z,340
2023-03-20T13:15:04.199Z,335
2023-03-20T13:16:07.393Z,340
2023-03-20T13:17:04.154Z,335
2023-03-20T13:18:04.517Z,340
2023-03-20T13:19:03.864Z,320
2023-03-20T13:20:03.835Z,310
2023-03-20T13:21:04.077Z,325
2023-03-20T13:22:03.853Z,305
2023-03-20T13:23:04.327Z,320
2023-03-20T13:24:04.311Z,330
2023-03-20T13:25:04.318Z,320
2023-03-20T13:26:03.924Z,325
2023-03-20T13:27:04.283Z,325
2023-03-20T13:28:04.095Z,320
2023-03-20T13:29:03.493Z,315
2023-03-20T13:30:04.273Z,320
2023-03-20T13:31:04.307Z,325
2023-03-20T13:32:04.213Z,305
2023-03-20T13:33:04.572Z,300
2023-03-20T13:34:04.420Z,280
2023-03-20T13:35:04.080Z,260
2023-03-20T13:36:04.394Z,250
2023-03-20T13:37:25.259Z,230
2023-03-20T13:38:04.235Z,225
2023-03-20T13:39:04.192Z,225
2023-03-20T13:40:03.926Z,195
2023-03-20T13:41:03.899Z,195
2023-03-20T13:42:04.218Z,180
2023-03-20T13:43:03.876Z,220
2023-03-20T13:44:04.417Z,255
2023-03-20T13:45:04.100Z,250
2023-03-20T13:46:03.833Z,225
2023-03-20T13:47:03.951Z,190
2023-03-20T13:48:03.815Z,160
2023-03-20T13:49:04.079Z,165
2023-03-20T13:50:04.280Z,170
2023-03-20T13:51:06.558Z,195
2023-03-20T13:52:03.516Z,200
2023-03-20T13:53:03.812Z,225
2023-03-20T13:54:03.857Z,225
2023-03-20T13:55:06.116Z,215
2023-03-20T13:56:03.990Z,205
2023-03-20T13:57:03.717Z,205
2023-03-20T13:58:03.720Z,205
2023-03-20T13:59:03.760Z,200
2023-03-20T14:00:03.548Z,180
2023-03-20T14:01:03.975Z,140
2023-03-20T14:02:03.707Z,110
2023-03-20T14:03:03.407Z,100
2023-03-20T14:04:04.484Z,85
2023-03-20T14:05:03.743Z,85
2023-03-20T14:06:04.031Z,115
2023-03-20T14:07:04.414Z,115
2023-03-20T14:08:03.635Z,100
2023-03-20T14:09:03.472Z,120
2023-03-20T14:10:03.585Z,120
2023-03-20T14:11:03.832Z,115
2023-03-20T14:12:03.573Z,130
2023-03-20T14:13:03.376Z,130
2023-03-20T14:14:03.821Z,115
2023-03-20T14:15:03.283Z,105
2023-03-20T14:16:03.555Z,120
2023-03-20T14:17:03.770Z,155
2023-03-20T14:18:03.763Z,190
2023-03-20T14:19:03.482Z,210
2023-03-20T14:20:03.490Z,225
2023-03-20T14:21:03.520Z,240
2023-03-20T14:22:03.852Z,245
2023-03-20T14:23:03.711Z,245
2023-03-20T14:24:03.452Z,240
2023-03-20T14:25:03.684Z,220
2023-03-20T14:26:03.175Z,185
2023-03-20T14:27:03.448Z,170